Time;durP1;ratioP1;P1;durP2;ratioP2;P2;SDS_P1;SDS_P2;PMS_P1;PMS_P2;Temp;Humidity;BMP_temperature;BMP_pressure;BME280_temperature;BME280_humidity;BME280_pressure;Samples;Min_cycle;Max_cycle;Signal;HPM_P1;HPM_P2
2022/06/25 00:01:03;;;;;;;4.27;3.53;;;;;;;22.04;89.41;99169.66;5050254;28;20213;-67
2022/06/25 00:03:30;;;;;;;3.67;3.57;;;;;;;22.02;89.96;99167.19;5050810;28;20208;-68
2022/06/25 00:05:58;;;;;;;3.97;3.77;;;;;;;22.01;90.05;99165.50;5049354;28;20294;-69
2022/06/25 00:08:25;;;;;;;3.90;3.70;;;;;;;22.01;89.65;99164.69;5040594;28;20201;-68
2022/06/25 00:10:52;;;;;;;4.20;3.97;;;;;;;21.93;89.50;99160.94;5050000;28;20232;-69
2022/06/25 00:13:18;;;;;;;3.97;3.77;;;;;;;21.83;90.07;99152.16;5049989;28;20200;-68
2022/06/25 00:15:45;;;;;;;4.03;3.83;;;;;;;21.77;90.46;99152.63;5050419;28;20656;-68
2022/06/25 00:18:12;;;;;;;4.10;3.90;;;;;;;21.74;91.14;99157.28;5035690;28;20221;-67
2022/06/25 00:20:39;;;;;;;4.70;4.50;;;;;;;21.74;91.54;99160.72;5034052;28;20228;-68
2022/06/25 00:23:07;;;;;;;4.20;4.00;;;;;;;21.65;92.59;99158.81;5043194;28;20711;-69
2022/06/25 00:25:34;;;;;;;4.43;4.13;;;;;;;21.42;92.78;99134.53;5038802;28;20212;-68
2022/06/25 00:28:01;;;;;;;4.77;4.37;;;;;;;21.58;93.17;99173.31;5049292;28;20203;-68
2022/06/25 00:30:29;;;;;;;4.27;4.07;;;;;;;21.52;93.39;99160.72;5047522;28;20311;-69
2022/06/25 00:32:55;;;;;;;5.13;4.83;;;;;;;21.45;94.94;99168.19;5049388;28;20570;-69
2022/06/25 00:35:22;;;;;;;4.97;4.63;;;;;;;21.35;97.29;99150.81;5049237;28;20680;-68
2022/06/25 00:37:49;;;;;;;5.07;4.83;;;;;;;21.34;97.28;99151.75;5048821;28;20716;-68
2022/06/25 00:40:17;;;;;;;5.07;4.73;;;;;;;21.30;98.31;99147.72;5049903;28;20199;-68
2022/06/25 00:42:45;;;;;;;4.87;4.67;;;;;;;21.17;98.58;99131.38;5040584;28;20198;-68
2022/06/25 00:45:13;;;;;;;4.80;4.60;;;;;;;21.17;99.02;99128.75;5044105;28;20213;-69
2022/06/25 00:47:40;;;;;;;5.60;5.40;;;;;;;21.17;99.06;99128.75;5048867;28;20288;-68
2022/06/25 00:50:08;;;;;;;4.60;4.40;;;;;;;21.14;99.03;99122.00;5050582;28;20728;-68
2022/06/25 00:52:36;;;;;;;5.57;5.27;;;;;;;21.18;99.20;99120.00;5050824;28;20200;-68
2022/06/25 00:55:11;;;;;;;5.47;5.07;;;;;;;21.25;99.04;99129.84;5034167;28;20203;-69
2022/06/25 00:57:43;;;;;;;4.67;4.43;;;;;;;21.28;98.93;99128.75;5049912;28;20222;-68
2022/06/25 01:00:14;;;;;;;5.10;4.90;;;;;;;21.28;99.26;99128.75;5049678;28;20214;-68
2022/06/25 01:02:41;;;;;;;4.80;4.60;;;;;;;21.27;98.97;99127.09;5049537;28;20303;-68
2022/06/25 01:05:10;;;;;;;4.93;4.73;;;;;;;21.27;98.68;99127.09;5050683;28;20204;-68
2022/06/25 01:07:39;;;;;;;5.30;4.90;;;;;;;21.25;99.06;99118.56;5037415;28;20211;-68
2022/06/25 01:10:07;;;;;;;5.07;4.87;;;;;;;21.22;98.74;99121.44;5048222;28;20220;-68
2022/06/25 01:12:35;;;;;;;6.20;5.60;;;;;;;21.21;98.51;99122.38;5049689;28;20202;-68
2022/06/25 01:15:07;;;;;;;7.73;6.40;;;;;;;21.18;98.58;99117.38;5050041;28;20260;-68
2022/06/25 01:17:36;;;;;;;5.67;5.37;;;;;;;21.19;98.10;99113.84;5050477;28;20200;-68
2022/06/25 01:20:04;;;;;;;5.37;5.10;;;;;;;21.18;97.35;99113.00;5050321;28;20220;-68
2022/06/25 01:22:33;;;;;;;5.57;5.17;;;;;;;21.12;97.41;99095.25;5035196;28;20203;-68
2022/06/25 01:25:00;;;;;;;6.37;4.60;;;;;;;21.14;97.13;99110.75;5042794;28;20203;-68
2022/06/25 01:27:27;;;;;;;5.50;5.10;;;;;;;21.10;97.08;99109.34;5050192;28;20211;-68
2022/06/25 01:29:54;;;;;;;4.50;4.30;;;;;;;21.09;96.99;99102.44;5050183;28;20290;-68
2022/06/25 01:32:20;;;;;;;5.10;4.73;;;;;;;21.08;96.65;99104.22;5041307;28;20197;-68
2022/06/25 01:34:47;;;;;;;6.17;5.87;;;;;;;21.06;96.92;99094.88;5035952;28;20196;-67
2022/06/25 01:37:14;;;;;;;5.30;5.00;;;;;;;21.08;96.84;99103.38;5046995;28;20208;-68
2022/06/25 01:39:42;;;;;;;5.60;5.10;;;;;;;21.06;97.17;99097.47;5050413;28;20306;-68
2022/06/25 01:42:58;;;;;;;4.90;4.70;;;;;;;21.06;96.87;99094.88;5041560;28;20208;-68
2022/06/25 01:44:56;;;;;;;6.37;5.43;;;;;;;21.03;96.37;99098.53;5049989;28;20228;-68
2022/06/25 01:47:23;;;;;;;5.17;4.93;;;;;;;21.02;96.80;99093.44;5044787;28;20640;-68
2022/06/25 01:49:50;;;;;;;5.07;4.67;;;;;;;21.01;96.72;99086.56;5050198;28;20220;-69
2022/06/25 01:52:17;;;;;;;6.00;5.63;;;;;;;20.95;96.31;99096.53;5042087;28;20200;-69
2022/06/25 01:54:45;;;;;;;5.53;5.13;;;;;;;20.94;96.25;99089.63;5050288;28;20608;-68
2022/06/25 01:57:12;;;;;;;4.43;4.23;;;;;;;20.90;96.59;99083.00;5041068;28;20691;-68
2022/06/25 01:59:39;;;;;;;5.20;4.90;;;;;;;20.92;96.84;99081.13;5049557;28;20211;-69
2022/06/25 02:02:06;;;;;;;5.97;5.37;;;;;;;20.93;96.74;99082.78;5048999;28;20216;-69
2022/06/25 02:04:32;;;;;;;4.70;4.40;;;;;;;20.93;96.70;99097.59;5038571;28;20206;-68
2022/06/25 02:06:59;;;;;;;4.97;4.73;;;;;;;20.63;96.65;99053.88;5037703;28;20578;-68
2022/06/25 02:09:26;;;;;;;4.73;4.53;;;;;;;20.91;96.48;99105.50;5048707;28;20196;-68
2022/06/25 02:11:54;;;;;;;8.33;4.97;;;;;;;20.82;96.45;99105.41;5050328;28;20211;-68
2022/06/25 02:14:21;;;;;;;5.10;4.80;;;;;;;20.76;95.86;99106.69;5043269;28;20676;-68
2022/06/25 02:16:48;;;;;;;4.70;4.50;;;;;;;20.76;95.76;99111.06;5053371;28;20583;-68
2022/06/25 02:19:15;;;;;;;4.57;4.37;;;;;;;20.69;95.42;99100.28;5052590;28;20701;-68
2022/06/25 02:21:42;;;;;;;4.70;4.50;;;;;;;20.75;95.94;99115.44;5045966;28;20739;-68
2022/06/25 02:24:09;;;;;;;5.50;5.20;;;;;;;20.73;95.47;99112.16;5039658;28;20212;-68
2022/06/25 02:26:36;;;;;;;5.23;4.83;;;;;;;20.73;95.19;99116.53;5044946;28;20206;-68
2022/06/25 02:29:04;;;;;;;5.20;4.90;;;;;;;20.72;95.15;99115.69;5053401;28;20204;-68
2022/06/25 02:31:31;;;;;;;4.80;4.60;;;;;;;20.71;94.74;99116.63;5050884;28;20250;-68
2022/06/25 02:33:58;;;;;;;5.03;4.77;;;;;;;20.72;95.15;99117.47;5040412;28;20686;-68
2022/06/25 02:36:24;;;;;;;4.20;4.00;;;;;;;20.69;95.84;99122.91;5051699;28;20203;-67
2022/06/25 02:38:51;;;;;;;4.57;4.30;;;;;;;20.66;95.41;99137.00;5043340;28;20230;-68
2022/06/25 02:41:18;;;;;;;4.40;4.20;;;;;;;20.62;95.39;99137.34;5052864;28;20200;-69
2022/06/25 02:43:45;;;;;;;4.43;4.23;;;;;;;20.51;95.41;99122.53;5048895;28;20195;-68
2022/06/25 02:46:13;;;;;;;4.43;4.07;;;;;;;20.58;95.55;99138.53;5032969;28;20200;-68
2022/06/25 02:48:40;;;;;;;4.53;4.17;;;;;;;20.58;95.67;99139.34;5040988;28;20204;-68
2022/06/25 02:51:07;;;;;;;4.10;3.73;;;;;;;20.57;95.56;99148.13;5038160;28;20216;-68
2022/06/25 02:53:34;;;;;;;4.83;4.63;;;;;;;20.55;96.55;99144.78;5048324;28;20218;-68
2022/06/25 02:58:56;;;;;;;10.10;4.20;;;;;;;20.48;96.66;99138.38;5048942;28;20207;-68
2022/06/25 03:01:25;;;;;;;4.17;3.87;;;;;;;20.41;96.86;99129.38;5052504;28;20205;-68
2022/06/25 03:03:53;;;;;;;4.27;4.03;;;;;;;20.47;97.27;99139.31;5051404;28;20208;-68
2022/06/25 03:06:20;;;;;;;3.87;3.67;;;;;;;20.47;97.01;99147.13;5048728;28;20212;-68
2022/06/25 03:08:48;;;;;;;4.60;4.40;;;;;;;20.46;96.81;99140.25;5052454;28;20209;-68
2022/06/25 03:11:15;;;;;;;4.40;4.07;;;;;;;20.46;96.81;99150.69;5052317;28;20222;-68
2022/06/25 03:13:42;;;;;;;4.40;4.20;;;;;;;20.46;97.30;99148.06;5052376;28;20198;-68
2022/06/25 03:16:09;;;;;;;4.70;4.30;;;;;;;20.45;97.71;99148.19;5052635;28;20654;-68
2022/06/25 03:18:38;;;;;;;5.33;5.03;;;;;;;20.42;98.03;99155.28;5044090;28;20215;-68
2022/06/25 03:21:06;;;;;;;5.10;4.80;;;;;;;20.45;98.14;99162.06;5035601;28;20204;-68
2022/06/25 03:23:33;;;;;;;4.23;3.93;;;;;;;20.47;98.49;99162.75;5051734;28;20225;-68
2022/06/25 03:26:00;;;;;;;5.53;5.03;;;;;;;20.50;98.31;99162.53;5051983;28;20207;-68
2022/06/25 03:28:27;;;;;;;4.50;4.30;;;;;;;20.52;99.35;99171.03;5046751;28;20263;-68
2022/06/25 03:30:53;;;;;;;4.00;3.70;;;;;;;20.49;99.57;99166.06;5032009;28;20215;-68
2022/06/25 03:33:20;;;;;;;4.90;4.70;;;;;;;20.52;100.00;99167.63;5040346;28;20198;-68
2022/06/25 03:35:48;;;;;;;5.07;4.67;;;;;;;20.55;100.00;99172.63;5049075;28;20200;-68
2022/06/25 03:38:15;;;;;;;4.63;4.43;;;;;;;20.63;100.00;99163.28;5044917;28;20799;-68
2022/06/25 03:40:42;;;;;;;4.20;4.00;;;;;;;20.72;100.00;99167.78;5044129;28;20217;-69
2022/06/25 03:43:09;;;;;;;4.37;4.17;;;;;;;20.80;100.00;99165.44;5051625;28;20215;-68
2022/06/25 03:45:38;;;;;;;4.70;4.50;;;;;;;20.84;99.83;99164.25;5045657;28;20203;-68
2022/06/25 03:48:05;;;;;;;4.37;4.17;;;;;;;20.98;100.00;99163.22;5049616;28;20257;-68
2022/06/25 03:50:33;;;;;;;4.60;4.40;;;;;;;21.11;100.00;99168.34;5051627;28;20227;-68
2022/06/25 03:53:01;;;;;;;3.90;3.70;;;;;;;21.24;99.91;99169.06;5050037;28;20207;-68
2022/06/25 03:55:28;;;;;;;3.87;3.67;;;;;;;21.34;99.45;99175.22;5047401;28;20208;-68
2022/06/25 03:57:55;;;;;;;4.07;3.87;;;;;;;21.38;98.23;99169.66;5050042;28;20255;-69
2022/06/25 04:00:22;;;;;;;4.27;4.07;;;;;;;21.41;98.26;99171.19;5049139;28;20223;-68
2022/06/25 04:02:49;;;;;;;4.67;4.47;;;;;;;21.47;96.67;99168.09;5051460;28;20546;-69
2022/06/25 04:05:16;;;;;;;4.43;4.23;;;;;;;21.55;96.83;99157.88;5050176;28;20204;-68
2022/06/25 04:07:43;;;;;;;4.43;4.03;;;;;;;21.67;97.43;99164.75;5050707;28;20580;-69
2022/06/25 04:10:11;;;;;;;4.90;4.63;;;;;;;21.81;97.27;99164.47;5039522;28;20215;-68
2022/06/25 04:12:38;;;;;;;7.17;3.87;;;;;;;21.95;96.56;99161.63;5051470;28;20692;-69
2022/06/25 04:15:06;;;;;;;4.10;3.93;;;;;;;22.13;95.17;99155.88;5050438;28;20215;-69
2022/06/25 04:17:33;;;;;;;4.30;4.10;;;;;;;22.32;94.11;99153.41;5048177;28;20193;-69
2022/06/25 04:19:59;;;;;;;4.33;4.03;;;;;;;22.54;93.52;99153.28;5035709;28;20223;-69
2022/06/25 04:22:27;;;;;;;3.20;3.00;;;;;;;22.75;91.70;99156.75;5048898;28;20575;-69
2022/06/25 04:24:53;;;;;;;4.87;4.47;;;;;;;22.93;91.09;99155.22;5047973;28;20244;-69
2022/06/25 04:30:08;;;;;;;4.40;4.20;;;;;;;23.15;88.82;99167.28;5048905;28;20254;-69
2022/06/25 04:32:34;;;;;;;3.80;3.50;;;;;;;23.28;90.09;99167.06;5050845;28;20203;-69
2022/06/25 04:35:01;;;;;;;3.97;3.77;;;;;;;23.40;89.27;99158.19;5050002;28;20197;-69
2022/06/25 04:37:28;;;;;;;4.20;3.70;;;;;;;23.56;87.47;99153.28;5047163;28;20204;-69
2022/06/25 04:39:55;;;;;;;3.40;3.30;;;;;;;23.65;85.41;99155.06;5029241;28;20200;-69
2022/06/25 04:42:23;;;;;;;3.67;3.47;;;;;;;23.70;85.46;99155.50;5045625;28;20568;-69
2022/06/25 04:44:50;;;;;;;3.80;3.50;;;;;;;23.81;85.69;99158.00;5029354;28;20197;-69
2022/06/25 04:47:17;;;;;;;3.73;3.43;;;;;;;23.95;85.09;99160.22;5047080;28;20565;-69
2022/06/25 04:49:43;;;;;;;3.40;3.30;;;;;;;24.12;83.27;99168.41;5040432;28;20208;-70
2022/06/25 04:52:10;;;;;;;3.73;3.40;;;;;;;24.24;83.24;99176.00;5049786;28;20231;-69
2022/06/25 04:54:37;;;;;;;3.73;3.60;;;;;;;24.43;83.96;99169.91;5047430;28;20205;-69
2022/06/25 04:57:05;;;;;;;5.33;4.10;;;;;;;24.62;81.38;99169.88;5048842;28;20208;-70
2022/06/25 04:59:33;;;;;;;3.83;3.63;;;;;;;24.78;79.75;99172.75;5047030;28;20197;-70
2022/06/25 05:02:00;;;;;;;4.07;3.87;;;;;;;24.91;78.64;99169.88;5049661;28;20204;-69
2022/06/25 05:04:27;;;;;;;3.40;3.30;;;;;;;25.04;75.32;99171.19;5050017;28;20201;-69
2022/06/25 05:06:53;;;;;;;3.73;3.50;;;;;;;25.16;76.32;99168.41;5049075;28;20204;-69
2022/06/25 05:09:20;;;;;;;3.53;3.33;;;;;;;25.26;72.39;99164.78;5046808;28;20200;-70
2022/06/25 05:11:47;;;;;;;3.50;3.40;;;;;;;25.33;73.02;99160.59;5048809;28;20350;-69
2022/06/25 05:14:14;;;;;;;3.07;2.97;;;;;;;25.57;73.65;99167.97;5049179;28;20231;-69
2022/06/25 05:16:42;;;;;;;3.10;3.00;;;;;;;25.82;72.79;99161.19;5049601;28;20680;-70
2022/06/25 05:19:09;;;;;;;3.10;3.00;;;;;;;25.88;69.24;99168.50;5049535;28;20284;-70
2022/06/25 05:21:36;;;;;;;3.37;3.23;;;;;;;25.76;68.36;99162.59;5049018;28;20196;-70
2022/06/25 05:24:03;;;;;;;3.03;2.90;;;;;;;25.78;69.28;99176.44;5049530;28;20691;-70
2022/06/25 05:26:30;;;;;;;5.70;3.60;;;;;;;25.67;71.06;99165.28;5045210;28;20200;-70
2022/06/25 05:28:57;;;;;;;4.20;3.97;;;;;;;25.61;71.33;99176.38;5046974;28;20220;-70
2022/06/25 05:31:24;;;;;;;3.30;3.10;;;;;;;25.54;72.74;99176.13;5049885;28;20235;-70
2022/06/25 05:33:52;;;;;;;4.00;3.83;;;;;;;25.55;72.48;99180.44;5048903;28;20649;-69
2022/06/25 05:36:19;;;;;;;4.03;3.83;;;;;;;25.56;73.85;99176.81;5049797;28;20204;-70
2022/06/25 05:38:46;;;;;;;4.40;4.00;;;;;;;25.70;74.61;99173.69;5046836;28;20628;-70
2022/06/25 05:41:13;;;;;;;4.17;3.73;;;;;;;25.75;72.40;99168.81;5049023;28;20198;-71
2022/06/25 05:43:41;;;;;;;3.80;3.60;;;;;;;25.78;72.72;99171.19;5048739;28;20211;-70
2022/06/25 05:46:08;;;;;;;4.20;3.90;;;;;;;25.80;72.67;99184.97;5048624;28;20216;-70
2022/06/25 05:48:35;;;;;;;4.50;4.10;;;;;;;25.81;71.13;99185.81;5046912;28;20217;-70
2022/06/25 05:51:03;;;;;;;3.83;3.63;;;;;;;25.80;73.03;99187.59;5049475;28;20670;-69
2022/06/25 05:53:30;;;;;;;3.57;3.47;;;;;;;25.82;73.41;99188.28;5050169;28;20197;-70
2022/06/25 05:55:57;;;;;;;4.10;3.87;;;;;;;25.69;73.23;99187.78;5053044;28;20208;-69
2022/06/25 05:58:24;;;;;;;3.90;3.80;;;;;;;25.71;72.12;99196.38;5052036;28;20201;-70
2022/06/25 06:00:51;;;;;;;3.80;3.60;;;;;;;25.76;71.99;99194.13;5052033;28;20193;-71
2022/06/25 06:03:18;;;;;;;5.53;3.60;;;;;;;25.86;72.64;99196.69;5051619;28;20576;-70
2022/06/25 06:05:45;;;;;;;3.67;3.47;;;;;;;25.93;73.73;99200.38;5052388;28;20208;-71
2022/06/25 06:08:13;;;;;;;3.60;3.50;;;;;;;25.91;72.77;99203.13;5051697;28;20588;-70
2022/06/25 06:10:40;;;;;;;3.83;3.53;;;;;;;25.92;73.80;99194.28;5051485;28;20216;-71
2022/06/25 06:13:07;;;;;;;3.97;3.77;;;;;;;25.92;71.87;99199.53;5051952;28;20208;-71
2022/06/25 06:15:33;;;;;;;4.10;3.83;;;;;;;25.98;73.16;99201.56;5052626;28;20665;-64
2022/06/25 06:18:00;;;;;;;4.37;4.17;;;;;;;26.02;72.51;99195.06;5049856;28;20204;-65
2022/06/25 06:20:27;;;;;;;3.90;3.70;;;;;;;26.16;73.10;99206.03;5050903;28;20208;-64
2022/06/25 06:22:54;;;;;;;3.67;3.47;;;;;;;26.21;72.39;99203.78;5052356;28;20561;-64
2022/06/25 06:25:22;;;;;;;3.23;3.03;;;;;;;26.27;71.29;99213.72;5051304;28;20221;-63
2022/06/25 06:27:49;;;;;;;3.40;3.20;;;;;;;26.26;70.80;99207.66;5052150;28;20247;-63
2022/06/25 06:30:16;;;;;;;3.77;3.63;;;;;;;26.30;73.66;99210.81;5051846;28;20201;-64
2022/06/25 06:32:43;;;;;;;6.33;4.30;;;;;;;26.28;73.83;99218.00;5048233;28;20588;-65
2022/06/25 06:35:10;;;;;;;3.70;3.40;;;;;;;26.21;73.90;99206.41;5049748;28;20212;-64
2022/06/25 06:37:37;;;;;;;3.60;3.40;;;;;;;26.21;72.45;99212.50;5050946;28;20209;-64
2022/06/25 06:40:05;;;;;;;3.87;3.67;;;;;;;26.25;73.89;99205.16;5052351;28;20660;-64
2022/06/25 06:42:33;;;;;;;4.03;3.83;;;;;;;26.21;73.52;99207.25;5052277;28;20212;-64
2022/06/25 06:45:00;;;;;;;4.37;4.07;;;;;;;26.24;74.70;99206.13;5051292;28;20204;-61
2022/06/25 06:47:26;;;;;;;3.30;3.20;;;;;;;26.21;74.16;99209.03;5052916;28;20228;-61
2022/06/25 06:49:53;;;;;;;3.90;3.60;;;;;;;26.23;74.85;99207.13;5049819;28;20215;-61
2022/06/25 06:52:20;;;;;;;3.93;3.73;;;;;;;26.23;74.88;99201.88;5041781;28;20236;-61
2022/06/25 06:54:48;;;;;;;3.67;3.47;;;;;;;26.15;74.66;99199.94;5053161;28;20227;-60
2022/06/25 06:57:15;;;;;;;4.72;4.50;;;;;;;26.08;74.25;99199.72;5034102;28;20960;-61
2022/06/25 06:59:44;;;;;;;4.13;3.93;;;;;;;26.15;75.78;99194.69;5042007;28;20226;-62
2022/06/25 07:02:11;;;;;;;4.10;3.90;;;;;;;26.18;75.50;99196.22;5049341;28;20207;-62
2022/06/25 07:04:38;;;;;;;3.73;3.43;;;;;;;26.24;75.56;99190.34;5051691;28;20688;-62
2022/06/25 07:07:05;;;;;;;4.40;4.10;;;;;;;26.27;77.32;99195.34;5043350;28;20287;-62
2022/06/25 07:09:31;;;;;;;4.00;3.80;;;;;;;26.30;75.61;99192.41;5040877;28;20251;-62
2022/06/25 07:11:58;;;;;;;4.53;4.17;;;;;;;26.53;74.17;99199.66;5036008;28;20626;-62
2022/06/25 07:14:25;;;;;;;4.73;3.93;;;;;;;26.78;72.30;99198.06;5042664;28;20209;-62
2022/06/25 07:16:54;;;;;;;3.33;3.13;;;;;;;27.00;74.15;99197.56;5043726;28;20197;-62
2022/06/25 07:19:21;;;;;;;3.50;3.33;;;;;;;27.31;71.24;99199.69;5047892;28;20197;-62
2022/06/25 07:21:47;;;;;;;3.57;3.37;;;;;;;27.44;67.11;99192.22;5052748;28;20207;-62
2022/06/25 07:24:14;;;;;;;3.50;3.13;;;;;;;27.46;65.99;99195.53;5040035;28;20205;-62
2022/06/25 07:26:41;;;;;;;3.40;2.80;;;;;;;27.52;65.77;99192.28;5046349;28;20197;-62
2022/06/25 07:29:08;;;;;;;3.30;3.20;;;;;;;27.51;67.56;99190.63;5052441;28;20201;-62
2022/06/25 07:31:35;;;;;;;3.10;3.00;;;;;;;27.52;66.79;99195.72;5052660;28;20221;-62
2022/06/25 07:34:03;;;;;;;3.20;3.07;;;;;;;27.61;65.76;99204.47;5050852;28;20196;-63
2022/06/25 07:36:30;;;;;;;3.70;3.50;;;;;;;27.76;66.85;99204.69;5052853;28;20715;-62
2022/06/25 07:38:57;;;;;;;3.17;3.00;;;;;;;27.92;63.96;99210.81;5052433;28;20228;-63
2022/06/25 07:41:24;;;;;;;3.37;3.07;;;;;;;28.20;66.56;99192.16;5044236;28;20640;-62
2022/06/25 07:43:51;;;;;;;3.53;3.37;;;;;;;28.48;63.01;99196.09;5052055;28;20201;-62
2022/06/25 07:46:18;;;;;;;3.53;3.23;;;;;;;28.86;63.13;99195.44;5051724;28;20215;-62
2022/06/25 07:48:44;;;;;;;3.57;3.30;;;;;;;29.19;67.06;99186.47;5052239;28;20228;-62
2022/06/25 07:53:57;;;;;;;3.50;3.40;;;;;;;29.80;60.03;99195.50;5045001;28;20263;-62
2022/06/25 07:56:24;;;;;;;3.38;3.08;;;;;;;29.84;56.08;99194.19;5046796;28;20212;-62
2022/06/25 07:58:51;;;;;;;3.22;3.13;;;;;;;29.95;60.75;99193.78;5046858;28;20192;-62
2022/06/25 08:01:18;;;;;;;3.42;3.22;;;;;;;30.18;58.43;99189.31;5035535;28;20256;-63
2022/06/25 08:03:45;;;;;;;3.00;2.90;;;;;;;30.33;61.34;99193.88;5049294;28;20196;-63
2022/06/25 08:06:13;;;;;;;3.08;2.95;;;;;;;30.43;52.83;99197.13;5051264;28;20197;-62
2022/06/25 08:08:41;;;;;;;2.75;2.65;;;;;;;30.59;51.52;99197.00;5037432;28;20196;-63
2022/06/25 08:11:08;;;;;;;3.60;3.40;;;;;;;30.38;53.52;99172.97;5043560;28;20210;-62
2022/06/25 08:13:36;;;;;;;3.20;2.78;;;;;;;30.54;51.53;99194.03;5051876;28;20707;-62
2022/06/25 08:16:04;;;;;;;2.92;2.83;;;;;;;30.55;53.00;99191.22;5051739;28;20204;-63
2022/06/25 08:18:30;;;;;;;3.60;3.40;;;;;;;30.68;54.22;99198.56;5051540;28;20196;-63
2022/06/25 08:20:57;;;;;;;5.93;3.60;;;;;;;30.68;55.50;99201.22;5044839;28;20212;-62
2022/06/25 08:23:26;;;;;;;3.38;3.25;;;;;;;30.72;54.87;99197.22;5051285;28;20275;-63
2022/06/25 08:25:52;;;;;;;3.63;3.42;;;;;;;30.76;53.06;99193.19;5038734;28;20205;-62
2022/06/25 08:28:19;;;;;;;4.20;2.85;;;;;;;30.80;51.44;99193.66;5048448;28;20672;-63
2022/06/25 08:30:46;;;;;;;3.40;3.30;;;;;;;30.84;54.20;99171.94;5051795;28;20208;-63
2022/06/25 08:33:14;;;;;;;3.00;2.90;;;;;;;31.00;52.72;99185.03;5041747;28;20223;-62
2022/06/25 08:35:41;;;;;;;3.53;3.10;;;;;;;31.01;49.25;99181.41;5049478;28;20201;-62
2022/06/25 08:38:08;;;;;;;3.28;3.17;;;;;;;31.09;49.04;99178.66;5051172;28;20224;-63
2022/06/25 08:40:36;;;;;;;3.47;3.15;;;;;;;31.23;54.00;99185.78;5041179;28;20201;-63
2022/06/25 08:43:05;;;;;;;3.58;3.30;;;;;;;31.31;50.99;99192.00;5048541;28;20197;-63
2022/06/25 08:45:33;;;;;;;3.08;2.90;;;;;;;31.33;51.56;99184.66;5050987;28;20208;-62
2022/06/25 08:48:01;;;;;;;3.83;3.63;;;;;;;31.39;54.67;99186.59;5051398;28;20258;-62
2022/06/25 08:50:28;;;;;;;3.53;3.42;;;;;;;31.27;55.32;99190.72;5041215;28;20580;-63
2022/06/25 08:52:57;;;;;;;3.25;3.15;;;;;;;31.09;53.88;99183.94;5051582;28;20719;-63
2022/06/25 08:55:32;;;;;;;3.42;3.13;;;;;;;31.19;54.18;99183.66;5036529;28;20194;-62
2022/06/25 08:58:02;;;;;;;3.15;3.03;;;;;;;31.29;51.15;99172.78;5044191;28;20279;-63
2022/06/25 09:00:30;;;;;;;2.92;2.83;;;;;;;31.39;52.31;99175.97;5049716;28;20204;-62
2022/06/25 09:02:57;;;;;;;3.38;3.20;;;;;;;31.26;51.13;99166.03;5048571;28;20195;-63
2022/06/25 09:05:27;;;;;;;3.85;3.13;;;;;;;31.33;52.67;99160.84;5049258;28;20204;-62
2022/06/25 09:07:55;;;;;;;3.55;3.35;;;;;;;31.19;52.70;99146.59;5046288;28;20216;-63
2022/06/25 09:10:26;;;;;;;3.90;3.75;;;;;;;31.26;51.98;99162.56;5032590;28;20205;-62
2022/06/25 09:12:54;;;;;;;3.50;3.30;;;;;;;31.42;53.16;99162.38;5049930;28;20228;-62
2022/06/25 09:15:23;;;;;;;3.60;3.40;;;;;;;31.58;53.48;99165.66;5038654;28;20208;-63
2022/06/25 09:17:51;;;;;;;6.28;3.65;;;;;;;31.64;52.94;99172.03;5038796;28;20636;-62
2022/06/25 09:20:18;;;;;;;4.18;3.28;;;;;;;31.64;48.25;99177.34;5040828;28;20661;-63
2022/06/25 09:22:57;;;;;;;3.22;3.13;;;;;;;31.68;50.67;99178.63;5054132;28;20196;-62
2022/06/25 09:25:25;;;;;;;3.55;3.30;;;;;;;31.81;49.34;99173.47;5050918;28;20200;-63
2022/06/25 09:27:52;;;;;;;3.60;3.50;;;;;;;31.99;49.89;99175.72;5054817;28;20200;-63
2022/06/25 09:30:21;;;;;;;3.35;2.95;;;;;;;32.30;48.91;99170.94;5045203;28;20209;-63
2022/06/25 09:32:51;;;;;;;3.00;2.90;;;;;;;32.50;48.85;99176.44;5040361;28;20269;-62
2022/06/25 09:35:30;;;;;;;3.83;3.63;;;;;;;32.75;48.77;99175.00;5043995;28;20292;-63
2022/06/25 09:38:03;;;;;;;2.95;2.85;;;;;;;32.82;47.05;99167.09;5053894;28;20230;-62
2022/06/25 09:40:30;;;;;;;2.95;2.85;;;;;;;32.89;50.25;99158.16;5054463;28;20205;-63
2022/06/25 09:42:57;;;;;;;2.60;2.50;;;;;;;32.97;51.84;99155.34;5049092;28;20201;-63
2022/06/25 09:45:25;;;;;;;3.85;2.95;;;;;;;33.13;48.60;99144.44;5054143;28;20353;-63
2022/06/25 09:47:55;;;;;;;2.83;2.72;;;;;;;33.36;44.20;99148.63;5054884;28;20618;-63
2022/06/25 09:50:22;;;;;;;2.50;2.40;;;;;;;33.62;42.80;99162.06;5054641;28;20657;-63
2022/06/25 09:52:55;;;;;;;2.83;2.63;;;;;;;33.62;43.01;99148.75;5054184;28;20216;-63
2022/06/25 09:55:24;;;;;;;2.65;2.55;;;;;;;33.59;46.82;99155.25;5054382;28;20688;-63
2022/06/25 09:57:52;;;;;;;3.00;2.90;;;;;;;33.61;45.18;99136.47;5054390;28;20622;-63
2022/06/25 10:00:20;;;;;;;2.63;2.53;;;;;;;33.91;43.81;99158.25;5054098;28;20232;-64
2022/06/25 10:02:48;;;;;;;2.67;2.42;;;;;;;33.79;44.13;99155.34;5041305;28;20678;-63
2022/06/25 10:05:19;;;;;;;3.22;3.13;;;;;;;33.75;45.72;99159.44;5045611;28;20244;-63
2022/06/25 10:08:07;;;;;;;2.88;2.78;;;;;;;33.70;46.08;99151.25;5054118;28;20208;-63
2022/06/25 10:10:39;;;;;;;3.00;2.80;;;;;;;33.87;46.86;99160.47;5053303;28;20211;-63
2022/06/25 10:13:06;;;;;;;3.00;2.90;;;;;;;34.02;42.60;99155.00;5054112;28;20220;-63
2022/06/25 10:15:34;;;;;;;2.97;2.75;;;;;;;34.14;43.09;99156.06;5041946;28;20201;-63
2022/06/25 10:18:03;;;;;;;3.28;3.00;;;;;;;33.95;40.51;99154.97;5048381;28;20208;-63
2022/06/25 10:20:32;;;;;;;2.97;2.78;;;;;;;33.71;44.16;99142.22;5054157;28;20197;-63
2022/06/25 10:23:01;;;;;;;3.17;3.08;;;;;;;33.53;46.03;99137.47;5053654;28;20204;-62
2022/06/25 10:25:29;;;;;;;3.22;3.03;;;;;;;33.53;44.32;99149.91;5053501;28;20201;-62
2022/06/25 10:28:08;;;;;;;7.07;3.03;;;;;;;33.56;45.66;99147.69;5053973;28;20219;-63
2022/06/25 10:30:37;;;;;;;4.03;2.55;;;;;;;33.72;46.87;99139.38;5053952;28;20200;-62
2022/06/25 10:33:04;;;;;;;2.80;2.70;;;;;;;33.75;45.52;99138.16;5053613;28;20584;-63
2022/06/25 10:35:35;;;;;;;2.80;2.70;;;;;;;33.71;44.48;99142.22;5053485;28;20205;-63
2022/06/25 10:38:04;;;;;;;3.20;3.00;;;;;;;33.84;44.48;99139.59;5053359;28;20664;-63
2022/06/25 10:40:32;;;;;;;2.45;2.35;;;;;;;33.83;45.52;99140.63;5051679;28;20200;-63
2022/06/25 10:43:02;;;;;;;2.97;2.63;;;;;;;33.75;43.24;99140.81;5053452;28;20197;-63
2022/06/25 10:45:56;;;;;;;2.80;2.70;;;;;;;33.70;44.15;99140.63;5042154;28;20276;-63
2022/06/25 10:48:25;;;;;;;2.15;2.05;;;;;;;33.76;40.46;99137.16;5052267;28;20197;-63
2022/06/25 10:50:55;;;;;;;2.22;2.13;;;;;;;33.60;39.53;99121.53;5053327;28;20208;-63
2022/06/25 10:53:26;;;;;;;5.68;2.13;;;;;;;33.62;40.32;99124.81;5045530;28;20221;-63
2022/06/25 10:56:15;;;;;;;2.38;2.20;;;;;;;33.60;41.11;99122.38;5051798;28;20559;-63
2022/06/25 10:58:46;;;;;;;2.30;2.20;;;;;;;33.63;40.57;99113.19;5053038;28;20196;-63
2022/06/25 11:01:34;;;;;;;2.63;2.42;;;;;;;33.85;40.32;99127.94;5053239;28;20209;-63
2022/06/25 11:04:06;;;;;;;2.58;2.47;;;;;;;34.03;41.08;99124.69;5043501;28;20281;-63
2022/06/25 11:06:38;;;;;;;2.80;2.60;;;;;;;34.10;40.73;99126.34;5052484;28;20207;-63
2022/06/25 11:09:17;;;;;;;2.70;2.60;;;;;;;34.25;40.61;99127.00;5049753;28;20201;-63
2022/06/25 11:11:47;;;;;;;3.13;2.92;;;;;;;34.19;39.59;99125.16;5050989;28;20197;-63
2022/06/25 11:14:24;;;;;;;2.67;2.58;;;;;;;34.18;40.11;99125.38;5044566;28;20228;-63
2022/06/25 11:16:52;;;;;;;2.85;2.75;;;;;;;33.97;38.56;99118.34;5051473;28;20196;-69
2022/06/25 11:19:19;;;;;;;3.13;3.03;;;;;;;34.00;43.15;99115.28;5052699;28;20638;-69
2022/06/25 11:21:48;;;;;;;2.80;2.70;;;;;;;33.94;40.25;99109.94;5049901;28;20196;-69
2022/06/25 11:24:18;;;;;;;3.15;3.05;;;;;;;33.96;40.21;99111.38;5052584;28;20646;-69
2022/06/25 11:29:34;;;;;;;3.20;3.10;;;;;;;33.76;42.17;99114.03;5052285;28;20204;-69
2022/06/25 11:32:01;;;;;;;2.75;2.65;;;;;;;33.71;40.73;99105.81;5051959;28;20935;-70
2022/06/25 11:34:30;;;;;;;3.13;2.92;;;;;;;33.82;42.19;99103.59;5044227;28;20445;-66
2022/06/25 11:37:04;;;;;;;2.90;2.75;;;;;;;34.06;43.04;99097.69;5050493;28;20204;-66
2022/06/25 11:39:32;;;;;;;3.00;2.90;;;;;;;34.10;40.33;99089.09;5051471;28;20238;-66
2022/06/25 11:42:00;;;;;;;3.70;2.95;;;;;;;34.18;40.65;99096.09;5050881;28;20205;-66
2022/06/25 11:44:27;;;;;;;2.70;2.60;;;;;;;34.24;42.34;99090.78;5036002;28;20671;-66
2022/06/25 11:46:55;;;;;;;5.05;3.05;;;;;;;34.25;41.75;99087.06;5048120;28;20205;-66
2022/06/25 11:49:23;;;;;;;3.40;3.20;;;;;;;34.24;41.70;99068.66;5051663;28;20232;-66